SMD weather

Smith Field
Fort Wayne, Indiana, United States

Public forecast

Using degrees Fahrenheit for public forecast. Weather courtesy of forecast.io.

METAR (pilot weather report)

Closest report is Fort Wayne International Airport, 10.1 nm (18.7 km) S. Retrieved 2019/04/21 08:54 UTC (56 minutes ago):

KFWA 210854Z 00000KT 10SM FEW065 04/04 A2992 RMK AO2 SLP136 T00390039 53011

TAF (pilot weather forecast)

Closest forecast is Fort Wayne International Airport, 10.1 nm (18.7 km) S. Retrieved 2019/04/21 06:24 UTC (3 hours ago):

TAF KFWA 210521Z 2106/2206 24005KT P6SM SCT004 BKN070 FM210800 24003KT 4SM BR SCT070 FM211000 24003KT 1/2SM FG VV002 FM211300 24006KT P6SM SCT250